sensor_id;sensor_type;location;lat;lon;timestamp;P1;durP1;ratioP1;P2;durP2;ratioP2
6479;SDS011;71753;48.772;9.148;2023-12-07T00:01:39;7.63;;;3.50;;
6479;SDS011;71753;48.772;9.148;2023-12-07T00:04:06;5.27;;;3.37;;
6479;SDS011;71753;48.772;9.148;2023-12-07T00:06:34;6.17;;;3.33;;
6479;SDS011;71753;48.772;9.148;2023-12-07T00:09:01;6.73;;;3.80;;
6479;SDS011;71753;48.772;9.148;2023-12-07T00:11:27;4.77;;;3.50;;
6479;SDS011;71753;48.772;9.148;2023-12-07T00:13:54;5.93;;;3.73;;
6479;SDS011;71753;48.772;9.148;2023-12-07T00:16:20;6.07;;;3.50;;
6479;SDS011;71753;48.772;9.148;2023-12-07T00:18:47;4.73;;;3.23;;
6479;SDS011;71753;48.772;9.148;2023-12-07T00:21:14;6.90;;;3.27;;
6479;SDS011;71753;48.772;9.148;2023-12-07T00:23:42;5.03;;;3.20;;
6479;SDS011;71753;48.772;9.148;2023-12-07T00:26:08;6.23;;;3.57;;
6479;SDS011;71753;48.772;9.148;2023-12-07T00:28:36;4.70;;;3.10;;
6479;SDS011;71753;48.772;9.148;2023-12-07T00:31:02;5.07;;;3.20;;
6479;SDS011;71753;48.772;9.148;2023-12-07T00:33:29;4.83;;;3.20;;
6479;SDS011;71753;48.772;9.148;2023-12-07T00:35:56;4.73;;;3.20;;
6479;SDS011;71753;48.772;9.148;2023-12-07T00:38:22;5.40;;;3.10;;
6479;SDS011;71753;48.772;9.148;2023-12-07T00:40:50;5.67;;;3.43;;
6479;SDS011;71753;48.772;9.148;2023-12-07T00:43:17;4.20;;;2.90;;
6479;SDS011;71753;48.772;9.148;2023-12-07T00:45:44;5.70;;;3.00;;
6479;SDS011;71753;48.772;9.148;2023-12-07T00:48:10;4.30;;;3.03;;
6479;SDS011;71753;48.772;9.148;2023-12-07T00:50:37;5.40;;;2.90;;
6479;SDS011;71753;48.772;9.148;2023-12-07T00:53:04;5.80;;;3.43;;
6479;SDS011;71753;48.772;9.148;2023-12-07T00:55:30;4.77;;;3.10;;
6479;SDS011;71753;48.772;9.148;2023-12-07T00:57:58;5.80;;;3.20;;
6479;SDS011;71753;48.772;9.148;2023-12-07T01:00:26;4.00;;;2.97;;
6479;SDS011;71753;48.772;9.148;2023-12-07T01:02:53;6.97;;;3.17;;
6479;SDS011;71753;48.772;9.148;2023-12-07T01:05:20;4.23;;;2.90;;
6479;SDS011;71753;48.772;9.148;2023-12-07T01:07:47;4.43;;;2.93;;
6479;SDS011;71753;48.772;9.148;2023-12-07T01:10:13;5.80;;;3.20;;
6479;SDS011;71753;48.772;9.148;2023-12-07T01:12:40;7.90;;;3.70;;
6479;SDS011;71753;48.772;9.148;2023-12-07T01:15:08;6.07;;;3.20;;
6479;SDS011;71753;48.772;9.148;2023-12-07T01:17:35;5.97;;;3.00;;
6479;SDS011;71753;48.772;9.148;2023-12-07T01:20:03;5.40;;;3.17;;
6479;SDS011;71753;48.772;9.148;2023-12-07T01:22:32;4.10;;;2.90;;
6479;SDS011;71753;48.772;9.148;2023-12-07T01:24:59;5.03;;;3.10;;
6479;SDS011;71753;48.772;9.148;2023-12-07T01:27:25;4.30;;;3.37;;
6479;SDS011;71753;48.772;9.148;2023-12-07T01:29:52;4.17;;;2.67;;
6479;SDS011;71753;48.772;9.148;2023-12-07T01:32:20;4.77;;;3.27;;
6479;SDS011;71753;48.772;9.148;2023-12-07T01:34:47;4.10;;;2.93;;
6479;SDS011;71753;48.772;9.148;2023-12-07T01:37:13;3.37;;;2.60;;
6479;SDS011;71753;48.772;9.148;2023-12-07T01:39:41;5.53;;;3.00;;
6479;SDS011;71753;48.772;9.148;2023-12-07T01:42:08;4.90;;;3.20;;
6479;SDS011;71753;48.772;9.148;2023-12-07T01:44:36;4.47;;;3.20;;
6479;SDS011;71753;48.772;9.148;2023-12-07T01:47:03;4.50;;;3.33;;
6479;SDS011;71753;48.772;9.148;2023-12-07T01:49:32;4.20;;;2.90;;
6479;SDS011;71753;48.772;9.148;2023-12-07T01:51:59;5.30;;;3.30;;
6479;SDS011;71753;48.772;9.148;2023-12-07T01:54:26;6.47;;;3.23;;
6479;SDS011;71753;48.772;9.148;2023-12-07T01:56:52;4.47;;;3.00;;
6479;SDS011;71753;48.772;9.148;2023-12-07T01:59:21;3.93;;;2.90;;
6479;SDS011;71753;48.772;9.148;2023-12-07T02:01:48;3.77;;;2.90;;
6479;SDS011;71753;48.772;9.148;2023-12-07T02:04:15;4.73;;;3.13;;
6479;SDS011;71753;48.772;9.148;2023-12-07T02:06:44;5.43;;;3.60;;
6479;SDS011;71753;48.772;9.148;2023-12-07T02:09:11;4.23;;;2.73;;
6479;SDS011;71753;48.772;9.148;2023-12-07T02:11:37;5.40;;;3.17;;
6479;SDS011;71753;48.772;9.148;2023-12-07T02:14:04;4.70;;;2.80;;
6479;SDS011;71753;48.772;9.148;2023-12-07T02:16:31;4.40;;;3.13;;
6479;SDS011;71753;48.772;9.148;2023-12-07T02:19:09;4.93;;;3.10;;
6479;SDS011;71753;48.772;9.148;2023-12-07T02:21:52;6.20;;;3.10;;
6479;SDS011;71753;48.772;9.148;2023-12-07T02:24:25;6.37;;;3.27;;
6479;SDS011;71753;48.772;9.148;2023-12-07T02:26:55;4.23;;;2.93;;
6479;SDS011;71753;48.772;9.148;2023-12-07T02:29:22;5.17;;;3.10;;
6479;SDS011;71753;48.772;9.148;2023-12-07T02:31:48;5.63;;;3.30;;
6479;SDS011;71753;48.772;9.148;2023-12-07T02:34:15;6.23;;;3.40;;
6479;SDS011;71753;48.772;9.148;2023-12-07T02:36:42;6.10;;;3.20;;
6479;SDS011;71753;48.772;9.148;2023-12-07T02:39:09;4.87;;;3.30;;
6479;SDS011;71753;48.772;9.148;2023-12-07T02:41:37;4.53;;;3.20;;
6479;SDS011;71753;48.772;9.148;2023-12-07T02:44:07;5.10;;;3.50;;
6479;SDS011;71753;48.772;9.148;2023-12-07T02:46:34;4.57;;;3.03;;
6479;SDS011;71753;48.772;9.148;2023-12-07T02:49:00;3.90;;;2.77;;
6479;SDS011;71753;48.772;9.148;2023-12-07T02:51:27;5.47;;;3.30;;
6479;SDS011;71753;48.772;9.148;2023-12-07T02:53:54;6.00;;;3.33;;
6479;SDS011;71753;48.772;9.148;2023-12-07T02:56:20;3.77;;;3.00;;
6479;SDS011;71753;48.772;9.148;2023-12-07T02:58:47;5.77;;;3.57;;
6479;SDS011;71753;48.772;9.148;2023-12-07T03:01:15;4.73;;;3.23;;
6479;SDS011;71753;48.772;9.148;2023-12-07T03:03:41;7.03;;;3.20;;
6479;SDS011;71753;48.772;9.148;2023-12-07T03:06:08;3.53;;;3.00;;
6479;SDS011;71753;48.772;9.148;2023-12-07T03:08:35;4.93;;;3.43;;
6479;SDS011;71753;48.772;9.148;2023-12-07T03:11:01;4.37;;;3.07;;
6479;SDS011;71753;48.772;9.148;2023-12-07T03:13:28;5.90;;;3.50;;
6479;SDS011;71753;48.772;9.148;2023-12-07T03:15:55;4.33;;;3.17;;
6479;SDS011;71753;48.772;9.148;2023-12-07T03:18:23;5.23;;;3.37;;
6479;SDS011;71753;48.772;9.148;2023-12-07T03:20:50;5.57;;;3.57;;
6479;SDS011;71753;48.772;9.148;2023-12-07T03:23:17;7.23;;;3.87;;
6479;SDS011;71753;48.772;9.148;2023-12-07T03:25:43;4.13;;;3.30;;
6479;SDS011;71753;48.772;9.148;2023-12-07T03:28:11;5.07;;;3.10;;
6479;SDS011;71753;48.772;9.148;2023-12-07T03:30:37;4.80;;;3.13;;
6479;SDS011;71753;48.772;9.148;2023-12-07T03:33:04;5.73;;;3.90;;
6479;SDS011;71753;48.772;9.148;2023-12-07T03:35:32;7.67;;;4.07;;
6479;SDS011;71753;48.772;9.148;2023-12-07T03:37:59;7.33;;;4.17;;
6479;SDS011;71753;48.772;9.148;2023-12-07T03:40:26;6.37;;;3.43;;
6479;SDS011;71753;48.772;9.148;2023-12-07T03:42:53;7.10;;;4.27;;
6479;SDS011;71753;48.772;9.148;2023-12-07T03:45:19;7.80;;;4.10;;
6479;SDS011;71753;48.772;9.148;2023-12-07T03:47:46;7.63;;;4.00;;
6479;SDS011;71753;48.772;9.148;2023-12-07T03:50:13;5.27;;;3.40;;
6479;SDS011;71753;48.772;9.148;2023-12-07T03:52:41;6.70;;;3.40;;
6479;SDS011;71753;48.772;9.148;2023-12-07T03:55:07;6.30;;;3.70;;
6479;SDS011;71753;48.772;9.148;2023-12-07T03:57:35;5.50;;;3.73;;
6479;SDS011;71753;48.772;9.148;2023-12-07T04:00:02;5.80;;;3.47;;
6479;SDS011;71753;48.772;9.148;2023-12-07T04:02:32;6.60;;;3.70;;
6479;SDS011;71753;48.772;9.148;2023-12-07T04:04:59;6.43;;;3.47;;
6479;SDS011;71753;48.772;9.148;2023-12-07T04:07:26;6.50;;;3.57;;
6479;SDS011;71753;48.772;9.148;2023-12-07T04:09:55;6.13;;;3.67;;
6479;SDS011;71753;48.772;9.148;2023-12-07T04:12:22;6.03;;;3.97;;
6479;SDS011;71753;48.772;9.148;2023-12-07T04:14:49;7.53;;;4.50;;
6479;SDS011;71753;48.772;9.148;2023-12-07T04:17:16;8.57;;;3.77;;
6479;SDS011;71753;48.772;9.148;2023-12-07T04:19:43;7.73;;;4.00;;
6479;SDS011;71753;48.772;9.148;2023-12-07T04:22:09;6.00;;;3.77;;
6479;SDS011;71753;48.772;9.148;2023-12-07T04:24:36;4.47;;;3.00;;
6479;SDS011;71753;48.772;9.148;2023-12-07T04:27:04;6.90;;;3.80;;
6479;SDS011;71753;48.772;9.148;2023-12-07T04:29:31;5.70;;;3.50;;
6479;SDS011;71753;48.772;9.148;2023-12-07T04:31:58;4.70;;;3.30;;
6479;SDS011;71753;48.772;9.148;2023-12-07T04:34:24;6.47;;;3.80;;
6479;SDS011;71753;48.772;9.148;2023-12-07T04:36:51;6.90;;;3.40;;
6479;SDS011;71753;48.772;9.148;2023-12-07T04:39:18;5.70;;;3.67;;
6479;SDS011;71753;48.772;9.148;2023-12-07T04:41:44;5.80;;;3.80;;
6479;SDS011;71753;48.772;9.148;2023-12-07T04:44:12;6.07;;;4.03;;
6479;SDS011;71753;48.772;9.148;2023-12-07T04:46:39;5.40;;;3.60;;
6479;SDS011;71753;48.772;9.148;2023-12-07T04:49:06;6.97;;;4.03;;
6479;SDS011;71753;48.772;9.148;2023-12-07T04:51:32;5.50;;;3.70;;
6479;SDS011;71753;48.772;9.148;2023-12-07T04:53:59;6.97;;;4.00;;
6479;SDS011;71753;48.772;9.148;2023-12-07T04:56:26;5.13;;;3.40;;
6479;SDS011;71753;48.772;9.148;2023-12-07T04:58:52;5.53;;;3.27;;
6479;SDS011;71753;48.772;9.148;2023-12-07T05:01:20;4.57;;;3.63;;
6479;SDS011;71753;48.772;9.148;2023-12-07T05:03:47;7.83;;;4.00;;
6479;SDS011;71753;48.772;9.148;2023-12-07T05:06:14;5.80;;;3.40;;
6479;SDS011;71753;48.772;9.148;2023-12-07T05:08:40;7.83;;;3.67;;
6479;SDS011;71753;48.772;9.148;2023-12-07T05:11:08;7.57;;;3.77;;
6479;SDS011;71753;48.772;9.148;2023-12-07T05:13:35;4.90;;;3.67;;
6479;SDS011;71753;48.772;9.148;2023-12-07T05:16:01;5.50;;;3.73;;
6479;SDS011;71753;48.772;9.148;2023-12-07T05:18:30;7.77;;;4.00;;
6479;SDS011;71753;48.772;9.148;2023-12-07T05:20:57;5.50;;;4.13;;
6479;SDS011;71753;48.772;9.148;2023-12-07T05:23:24;6.30;;;3.73;;
6479;SDS011;71753;48.772;9.148;2023-12-07T05:25:50;4.13;;;3.20;;
6479;SDS011;71753;48.772;9.148;2023-12-07T05:28:17;6.77;;;4.07;;
6479;SDS011;71753;48.772;9.148;2023-12-07T05:30:44;6.47;;;4.20;;
6479;SDS011;71753;48.772;9.148;2023-12-07T05:33:11;7.93;;;3.50;;
6479;SDS011;71753;48.772;9.148;2023-12-07T05:35:39;5.10;;;3.27;;
6479;SDS011;71753;48.772;9.148;2023-12-07T05:38:06;7.30;;;4.13;;
6479;SDS011;71753;48.772;9.148;2023-12-07T05:40:32;5.77;;;3.63;;
6479;SDS011;71753;48.772;9.148;2023-12-07T05:42:59;7.00;;;4.07;;
6479;SDS011;71753;48.772;9.148;2023-12-07T05:45:26;5.47;;;3.77;;
6479;SDS011;71753;48.772;9.148;2023-12-07T05:47:53;6.47;;;3.87;;
6479;SDS011;71753;48.772;9.148;2023-12-07T05:50:20;7.17;;;4.27;;
6479;SDS011;71753;48.772;9.148;2023-12-07T05:52:48;9.47;;;4.30;;
6479;SDS011;71753;48.772;9.148;2023-12-07T05:55:15;4.70;;;3.50;;
6479;SDS011;71753;48.772;9.148;2023-12-07T05:57:41;8.27;;;3.93;;
6479;SDS011;71753;48.772;9.148;2023-12-07T06:00:11;9.17;;;4.50;;
6479;SDS011;71753;48.772;9.148;2023-12-07T06:02:41;7.10;;;4.27;;
6479;SDS011;71753;48.772;9.148;2023-12-07T06:05:08;5.73;;;4.00;;
6479;SDS011;71753;48.772;9.148;2023-12-07T06:07:36;5.77;;;3.83;;
6479;SDS011;71753;48.772;9.148;2023-12-07T06:10:04;5.07;;;3.43;;
6479;SDS011;71753;48.772;9.148;2023-12-07T06:12:31;7.67;;;4.43;;
6479;SDS011;71753;48.772;9.148;2023-12-07T06:14:58;6.60;;;3.50;;
6479;SDS011;71753;48.772;9.148;2023-12-07T06:17:24;6.83;;;4.13;;
6479;SDS011;71753;48.772;9.148;2023-12-07T06:19:51;6.47;;;4.40;;
6479;SDS011;71753;48.772;9.148;2023-12-07T06:22:18;6.00;;;3.93;;
6479;SDS011;71753;48.772;9.148;2023-12-07T06:24:44;8.43;;;4.30;;
6479;SDS011;71753;48.772;9.148;2023-12-07T06:27:12;7.53;;;4.67;;
6479;SDS011;71753;48.772;9.148;2023-12-07T06:29:39;6.00;;;3.80;;
6479;SDS011;71753;48.772;9.148;2023-12-07T06:32:06;7.53;;;4.20;;
6479;SDS011;71753;48.772;9.148;2023-12-07T06:34:32;6.50;;;4.33;;
6479;SDS011;71753;48.772;9.148;2023-12-07T06:36:59;5.70;;;3.93;;
6479;SDS011;71753;48.772;9.148;2023-12-07T06:39:26;7.03;;;4.20;;
6479;SDS011;71753;48.772;9.148;2023-12-07T06:41:53;8.13;;;4.50;;
6479;SDS011;71753;48.772;9.148;2023-12-07T06:44:22;7.80;;;4.50;;
6479;SDS011;71753;48.772;9.148;2023-12-07T06:46:48;9.40;;;4.00;;
6479;SDS011;71753;48.772;9.148;2023-12-07T06:49:15;5.53;;;3.93;;
6479;SDS011;71753;48.772;9.148;2023-12-07T06:51:42;7.13;;;4.30;;
6479;SDS011;71753;48.772;9.148;2023-12-07T06:54:08;6.87;;;4.43;;
6479;SDS011;71753;48.772;9.148;2023-12-07T06:56:35;6.93;;;3.97;;
6479;SDS011;71753;48.772;9.148;2023-12-07T06:59:02;7.60;;;4.07;;
6479;SDS011;71753;48.772;9.148;2023-12-07T07:01:30;7.80;;;4.37;;
6479;SDS011;71753;48.772;9.148;2023-12-07T07:03:56;7.17;;;4.10;;
6479;SDS011;71753;48.772;9.148;2023-12-07T07:06:23;7.07;;;4.27;;
6479;SDS011;71753;48.772;9.148;2023-12-07T07:08:50;7.43;;;3.90;;
6479;SDS011;71753;48.772;9.148;2023-12-07T07:11:16;7.97;;;4.80;;
6479;SDS011;71753;48.772;9.148;2023-12-07T07:13:43;6.93;;;4.23;;
6479;SDS011;71753;48.772;9.148;2023-12-07T07:16:09;6.30;;;3.83;;
6479;SDS011;71753;48.772;9.148;2023-12-07T07:18:38;6.40;;;4.20;;
6479;SDS011;71753;48.772;9.148;2023-12-07T07:21:05;7.00;;;4.03;;
6479;SDS011;71753;48.772;9.148;2023-12-07T07:23:33;8.13;;;4.23;;
6479;SDS011;71753;48.772;9.148;2023-12-07T07:26:00;7.47;;;4.70;;
6479;SDS011;71753;48.772;9.148;2023-12-07T07:28:27;6.67;;;4.50;;
6479;SDS011;71753;48.772;9.148;2023-12-07T07:30:54;7.43;;;4.10;;
6479;SDS011;71753;48.772;9.148;2023-12-07T07:33:20;6.30;;;3.77;;
6479;SDS011;71753;48.772;9.148;2023-12-07T07:35:48;5.63;;;3.87;;
6479;SDS011;71753;48.772;9.148;2023-12-07T07:38:15;6.40;;;3.90;;
6479;SDS011;71753;48.772;9.148;2023-12-07T07:40:42;5.83;;;4.13;;
6479;SDS011;71753;48.772;9.148;2023-12-07T07:43:10;6.73;;;4.60;;
6479;SDS011;71753;48.772;9.148;2023-12-07T07:45:37;7.63;;;4.30;;
6479;SDS011;71753;48.772;9.148;2023-12-07T07:48:04;8.67;;;4.10;;
6479;SDS011;71753;48.772;9.148;2023-12-07T07:50:31;9.80;;;4.77;;
6479;SDS011;71753;48.772;9.148;2023-12-07T07:52:59;7.73;;;4.73;;
6479;SDS011;71753;48.772;9.148;2023-12-07T07:55:26;7.27;;;4.30;;
6479;SDS011;71753;48.772;9.148;2023-12-07T07:57:53;6.27;;;4.13;;
6479;SDS011;71753;48.772;9.148;2023-12-07T08:00:20;7.13;;;4.67;;
6479;SDS011;71753;48.772;9.148;2023-12-07T08:02:47;6.93;;;4.03;;
6479;SDS011;71753;48.772;9.148;2023-12-07T08:05:14;6.93;;;4.33;;
6479;SDS011;71753;48.772;9.148;2023-12-07T08:07:40;7.73;;;4.40;;
6479;SDS011;71753;48.772;9.148;2023-12-07T08:10:09;8.53;;;4.80;;
6479;SDS011;71753;48.772;9.148;2023-12-07T08:12:36;7.83;;;4.37;;
6479;SDS011;71753;48.772;9.148;2023-12-07T08:15:05;7.30;;;4.47;;
6479;SDS011;71753;48.772;9.148;2023-12-07T08:17:36;7.97;;;4.80;;
6479;SDS011;71753;48.772;9.148;2023-12-07T08:20:03;9.33;;;4.87;;
6479;SDS011;71753;48.772;9.148;2023-12-07T08:22:31;7.57;;;4.90;;
6479;SDS011;71753;48.772;9.148;2023-12-07T08:24:58;7.67;;;4.80;;
6479;SDS011;71753;48.772;9.148;2023-12-07T08:27:26;8.43;;;4.97;;
6479;SDS011;71753;48.772;9.148;2023-12-07T08:29:53;8.93;;;4.60;;
6479;SDS011;71753;48.772;9.148;2023-12-07T08:32:20;8.47;;;4.40;;
6479;SDS011;71753;48.772;9.148;2023-12-07T08:34:46;7.17;;;4.20;;
6479;SDS011;71753;48.772;9.148;2023-12-07T08:37:13;6.43;;;3.87;;
6479;SDS011;71753;48.772;9.148;2023-12-07T08:39:40;6.27;;;4.10;;
6479;SDS011;71753;48.772;9.148;2023-12-07T08:42:06;7.30;;;4.43;;
6479;SDS011;71753;48.772;9.148;2023-12-07T08:44:35;6.47;;;4.40;;
6479;SDS011;71753;48.772;9.148;2023-12-07T08:47:02;7.03;;;4.83;;
6479;SDS011;71753;48.772;9.148;2023-12-07T08:49:30;9.27;;;4.93;;
6479;SDS011;71753;48.772;9.148;2023-12-07T08:51:57;5.63;;;4.03;;
6479;SDS011;71753;48.772;9.148;2023-12-07T08:54:23;7.77;;;4.20;;
6479;SDS011;71753;48.772;9.148;2023-12-07T08:56:50;9.30;;;4.13;;
6479;SDS011;71753;48.772;9.148;2023-12-07T08:59:17;7.67;;;3.97;;
6479;SDS011;71753;48.772;9.148;2023-12-07T09:01:45;7.30;;;4.00;;
6479;SDS011;71753;48.772;9.148;2023-12-07T09:04:12;5.37;;;4.07;;
6479;SDS011;71753;48.772;9.148;2023-12-07T09:06:39;8.40;;;4.83;;
6479;SDS011;71753;48.772;9.148;2023-12-07T09:09:05;9.30;;;4.97;;
6479;SDS011;71753;48.772;9.148;2023-12-07T09:11:32;7.17;;;4.10;;
6479;SDS011;71753;48.772;9.148;2023-12-07T09:13:59;6.73;;;4.43;;
6479;SDS011;71753;48.772;9.148;2023-12-07T09:16:26;7.17;;;4.40;;
6479;SDS011;71753;48.772;9.148;2023-12-07T09:18:54;6.00;;;4.10;;
6479;SDS011;71753;48.772;9.148;2023-12-07T09:21:21;6.47;;;4.07;;
6479;SDS011;71753;48.772;9.148;2023-12-07T09:23:47;6.57;;;3.83;;
6479;SDS011;71753;48.772;9.148;2023-12-07T09:26:14;6.00;;;3.80;;
6479;SDS011;71753;48.772;9.148;2023-12-07T09:28:41;6.33;;;3.90;;
6479;SDS011;71753;48.772;9.148;2023-12-07T09:31:07;5.80;;;3.83;;
6479;SDS011;71753;48.772;9.148;2023-12-07T09:33:34;5.83;;;3.83;;
6479;SDS011;71753;48.772;9.148;2023-12-07T09:36:02;5.73;;;3.67;;
6479;SDS011;71753;48.772;9.148;2023-12-07T09:38:34;5.97;;;3.60;;
6479;SDS011;71753;48.772;9.148;2023-12-07T09:41:02;6.37;;;3.73;;
6479;SDS011;71753;48.772;9.148;2023-12-07T09:43:29;5.63;;;4.17;;
6479;SDS011;71753;48.772;9.148;2023-12-07T09:45:55;7.80;;;4.17;;
6479;SDS011;71753;48.772;9.148;2023-12-07T09:48:24;4.70;;;3.37;;
6479;SDS011;71753;48.772;9.148;2023-12-07T09:50:51;6.53;;;4.27;;
6479;SDS011;71753;48.772;9.148;2023-12-07T09:53:20;5.83;;;3.73;;
6479;SDS011;71753;48.772;9.148;2023-12-07T09:55:47;6.20;;;4.00;;
6479;SDS011;71753;48.772;9.148;2023-12-07T09:58:14;6.50;;;4.07;;
6479;SDS011;71753;48.772;9.148;2023-12-07T10:00:41;5.70;;;3.90;;
6479;SDS011;71753;48.772;9.148;2023-12-07T10:03:07;6.67;;;3.90;;
6479;SDS011;71753;48.772;9.148;2023-12-07T10:05:55;7.13;;;4.13;;
6479;SDS011;71753;48.772;9.148;2023-12-07T10:08:27;6.60;;;3.70;;
6479;SDS011;71753;48.772;9.148;2023-12-07T10:11:01;6.90;;;4.03;;
6479;SDS011;71753;48.772;9.148;2023-12-07T10:13:32;6.73;;;4.10;;
6479;SDS011;71753;48.772;9.148;2023-12-07T10:16:06;5.70;;;3.90;;
6479;SDS011;71753;48.772;9.148;2023-12-07T10:18:34;5.97;;;3.50;;
6479;SDS011;71753;48.772;9.148;2023-12-07T10:21:01;5.03;;;3.40;;
6479;SDS011;71753;48.772;9.148;2023-12-07T10:23:30;6.27;;;3.80;;
6479;SDS011;71753;48.772;9.148;2023-12-07T10:25:58;6.47;;;3.83;;
6479;SDS011;71753;48.772;9.148;2023-12-07T10:28:25;7.50;;;3.53;;
6479;SDS011;71753;48.772;9.148;2023-12-07T10:30:52;4.37;;;3.53;;
6479;SDS011;71753;48.772;9.148;2023-12-07T10:33:19;6.23;;;3.63;;
6479;SDS011;71753;48.772;9.148;2023-12-07T10:35:46;5.77;;;3.57;;
6479;SDS011;71753;48.772;9.148;2023-12-07T10:38:14;5.50;;;3.60;;
6479;SDS011;71753;48.772;9.148;2023-12-07T10:40:42;6.50;;;3.67;;
6479;SDS011;71753;48.772;9.148;2023-12-07T10:43:09;5.67;;;3.13;;
6479;SDS011;71753;48.772;9.148;2023-12-07T10:45:36;5.77;;;3.43;;
6479;SDS011;71753;48.772;9.148;2023-12-07T10:48:04;4.57;;;3.33;;
6479;SDS011;71753;48.772;9.148;2023-12-07T10:50:34;4.87;;;3.33;;
6479;SDS011;71753;48.772;9.148;2023-12-07T10:53:04;4.60;;;3.07;;
6479;SDS011;71753;48.772;9.148;2023-12-07T10:55:35;5.33;;;3.47;;
6479;SDS011;71753;48.772;9.148;2023-12-07T10:58:10;4.87;;;2.93;;
6479;SDS011;71753;48.772;9.148;2023-12-07T11:00:40;5.97;;;3.57;;
6479;SDS011;71753;48.772;9.148;2023-12-07T11:03:11;5.73;;;3.10;;
6479;SDS011;71753;48.772;9.148;2023-12-07T11:05:41;4.70;;;3.30;;
6479;SDS011;71753;48.772;9.148;2023-12-07T11:08:09;6.93;;;3.70;;
6479;SDS011;71753;48.772;9.148;2023-12-07T11:10:39;5.40;;;3.60;;
6479;SDS011;71753;48.772;9.148;2023-12-07T11:13:17;5.40;;;3.40;;
6479;SDS011;71753;48.772;9.148;2023-12-07T11:15:46;4.80;;;2.97;;
6479;SDS011;71753;48.772;9.148;2023-12-07T11:18:13;4.33;;;3.23;;
6479;SDS011;71753;48.772;9.148;2023-12-07T11:20:40;6.50;;;3.43;;
6479;SDS011;71753;48.772;9.148;2023-12-07T11:23:09;4.03;;;2.80;;
6479;SDS011;71753;48.772;9.148;2023-12-07T11:25:36;3.67;;;2.70;;
6479;SDS011;71753;48.772;9.148;2023-12-07T11:28:03;5.53;;;2.90;;
6479;SDS011;71753;48.772;9.148;2023-12-07T11:30:32;5.63;;;2.87;;
6479;SDS011;71753;48.772;9.148;2023-12-07T11:33:01;3.37;;;2.80;;
6479;SDS011;71753;48.772;9.148;2023-12-07T11:35:30;3.87;;;2.80;;
6479;SDS011;71753;48.772;9.148;2023-12-07T11:38:03;4.03;;;2.73;;
6479;SDS011;71753;48.772;9.148;2023-12-07T11:40:35;3.60;;;2.47;;
6479;SDS011;71753;48.772;9.148;2023-12-07T11:43:02;3.77;;;2.33;;
6479;SDS011;71753;48.772;9.148;2023-12-07T11:45:38;3.80;;;2.40;;
6479;SDS011;71753;48.772;9.148;2023-12-07T11:48:06;3.97;;;2.40;;
6479;SDS011;71753;48.772;9.148;2023-12-07T11:50:33;4.03;;;2.50;;
6479;SDS011;71753;48.772;9.148;2023-12-07T11:53:01;4.10;;;2.40;;
6479;SDS011;71753;48.772;9.148;2023-12-07T11:55:27;3.47;;;2.60;;
6479;SDS011;71753;48.772;9.148;2023-12-07T11:57:54;3.17;;;2.40;;
6479;SDS011;71753;48.772;9.148;2023-12-07T12:00:21;3.33;;;2.30;;
6479;SDS011;71753;48.772;9.148;2023-12-07T12:02:49;2.43;;;2.00;;
6479;SDS011;71753;48.772;9.148;2023-12-07T12:05:16;3.20;;;2.43;;
6479;SDS011;71753;48.772;9.148;2023-12-07T12:07:43;3.23;;;2.23;;
6479;SDS011;71753;48.772;9.148;2023-12-07T12:10:09;3.13;;;2.20;;
6479;SDS011;71753;48.772;9.148;2023-12-07T12:12:38;2.37;;;1.80;;
6479;SDS011;71753;48.772;9.148;2023-12-07T12:15:05;2.80;;;2.27;;
6479;SDS011;71753;48.772;9.148;2023-12-07T12:17:32;2.23;;;1.90;;
6479;SDS011;71753;48.772;9.148;2023-12-07T12:20:02;2.80;;;1.90;;
6479;SDS011;71753;48.772;9.148;2023-12-07T12:22:29;2.60;;;2.03;;
6479;SDS011;71753;48.772;9.148;2023-12-07T12:24:57;3.70;;;2.30;;
6479;SDS011;71753;48.772;9.148;2023-12-07T12:27:24;3.50;;;2.23;;
6479;SDS011;71753;48.772;9.148;2023-12-07T12:29:50;3.17;;;2.40;;
6479;SDS011;71753;48.772;9.148;2023-12-07T12:32:17;2.70;;;2.17;;
6479;SDS011;71753;48.772;9.148;2023-12-07T12:34:46;4.97;;;2.87;;
6479;SDS011;71753;48.772;9.148;2023-12-07T12:37:18;2.87;;;2.17;;
6479;SDS011;71753;48.772;9.148;2023-12-07T12:39:45;3.47;;;2.60;;
6479;SDS011;71753;48.772;9.148;2023-12-07T12:42:12;3.30;;;2.60;;
6479;SDS011;71753;48.772;9.148;2023-12-07T12:44:38;3.97;;;3.03;;
6479;SDS011;71753;48.772;9.148;2023-12-07T12:47:05;3.63;;;2.70;;
6479;SDS011;71753;48.772;9.148;2023-12-07T12:49:34;3.13;;;2.40;;
6479;SDS011;71753;48.772;9.148;2023-12-07T12:52:01;4.67;;;3.07;;
6479;SDS011;71753;48.772;9.148;2023-12-07T12:54:31;4.40;;;2.80;;
6479;SDS011;71753;48.772;9.148;2023-12-07T12:56:58;4.63;;;3.03;;
6479;SDS011;71753;48.772;9.148;2023-12-07T12:59:25;4.63;;;3.07;;
6479;SDS011;71753;48.772;9.148;2023-12-07T13:01:52;5.87;;;3.20;;
6479;SDS011;71753;48.772;9.148;2023-12-07T13:04:18;5.37;;;3.30;;
6479;SDS011;71753;48.772;9.148;2023-12-07T13:06:45;4.60;;;3.20;;
6479;SDS011;71753;48.772;9.148;2023-12-07T13:09:13;5.57;;;2.87;;
6479;SDS011;71753;48.772;9.148;2023-12-07T13:11:43;5.30;;;3.10;;
6479;SDS011;71753;48.772;9.148;2023-12-07T13:14:10;4.93;;;3.33;;
6479;SDS011;71753;48.772;9.148;2023-12-07T13:16:36;6.27;;;3.20;;
6479;SDS011;71753;48.772;9.148;2023-12-07T13:19:03;4.87;;;3.27;;
6479;SDS011;71753;48.772;9.148;2023-12-07T13:21:30;8.03;;;3.10;;
6479;SDS011;71753;48.772;9.148;2023-12-07T13:23:57;5.97;;;2.73;;
6479;SDS011;71753;48.772;9.148;2023-12-07T13:26:23;4.43;;;2.80;;
6479;SDS011;71753;48.772;9.148;2023-12-07T13:28:52;6.27;;;3.23;;
6479;SDS011;71753;48.772;9.148;2023-12-07T13:31:19;4.07;;;2.90;;
6479;SDS011;71753;48.772;9.148;2023-12-07T13:33:45;4.33;;;3.03;;
6479;SDS011;71753;48.772;9.148;2023-12-07T13:36:12;4.37;;;2.93;;
6479;SDS011;71753;48.772;9.148;2023-12-07T13:38:39;5.17;;;3.10;;
6479;SDS011;71753;48.772;9.148;2023-12-07T13:41:06;3.80;;;2.83;;
6479;SDS011;71753;48.772;9.148;2023-12-07T13:43:33;6.43;;;3.03;;
6479;SDS011;71753;48.772;9.148;2023-12-07T13:46:01;6.43;;;2.83;;
6479;SDS011;71753;48.772;9.148;2023-12-07T13:48:27;3.27;;;2.80;;
6479;SDS011;71753;48.772;9.148;2023-12-07T13:50:54;5.13;;;3.23;;
6479;SDS011;71753;48.772;9.148;2023-12-07T13:53:21;3.57;;;2.90;;
6479;SDS011;71753;48.772;9.148;2023-12-07T13:55:48;4.03;;;2.80;;
6479;SDS011;71753;48.772;9.148;2023-12-07T13:58:16;4.80;;;3.13;;
6479;SDS011;71753;48.772;9.148;2023-12-07T14:00:42;4.77;;;3.10;;
6479;SDS011;71753;48.772;9.148;2023-12-07T14:03:12;4.63;;;2.73;;
6479;SDS011;71753;48.772;9.148;2023-12-07T14:05:39;3.97;;;2.63;;
6479;SDS011;71753;48.772;9.148;2023-12-07T14:08:05;3.73;;;2.40;;
6479;SDS011;71753;48.772;9.148;2023-12-07T14:10:32;3.60;;;2.73;;
6479;SDS011;71753;48.772;9.148;2023-12-07T14:12:59;3.63;;;2.57;;
6479;SDS011;71753;48.772;9.148;2023-12-07T14:15:26;5.23;;;2.50;;
6479;SDS011;71753;48.772;9.148;2023-12-07T14:17:53;3.37;;;2.30;;
6479;SDS011;71753;48.772;9.148;2023-12-07T14:20:21;2.53;;;2.07;;
6479;SDS011;71753;48.772;9.148;2023-12-07T14:22:49;3.27;;;1.87;;
6479;SDS011;71753;48.772;9.148;2023-12-07T14:25:16;3.07;;;1.90;;
6479;SDS011;71753;48.772;9.148;2023-12-07T14:27:42;2.73;;;1.80;;
6479;SDS011;71753;48.772;9.148;2023-12-07T14:30:10;2.10;;;1.73;;
6479;SDS011;71753;48.772;9.148;2023-12-07T14:32:37;2.07;;;1.73;;
6479;SDS011;71753;48.772;9.148;2023-12-07T14:35:06;2.40;;;1.70;;
6479;SDS011;71753;48.772;9.148;2023-12-07T14:37:34;2.70;;;1.97;;
6479;SDS011;71753;48.772;9.148;2023-12-07T14:40:01;2.27;;;1.70;;
6479;SDS011;71753;48.772;9.148;2023-12-07T14:42:30;2.73;;;2.00;;
6479;SDS011;71753;48.772;9.148;2023-12-07T14:44:57;1.70;;;1.60;;
6479;SDS011;71753;48.772;9.148;2023-12-07T14:47:24;2.37;;;1.60;;
6479;SDS011;71753;48.772;9.148;2023-12-07T14:49:50;2.37;;;1.80;;
6479;SDS011;71753;48.772;9.148;2023-12-07T14:52:17;3.60;;;1.80;;
6479;SDS011;71753;48.772;9.148;2023-12-07T14:54:45;3.20;;;1.97;;
6479;SDS011;71753;48.772;9.148;2023-12-07T14:57:12;2.03;;;1.70;;
6479;SDS011;71753;48.772;9.148;2023-12-07T14:59:39;2.37;;;1.87;;
6479;SDS011;71753;48.772;9.148;2023-12-07T15:02:06;7.30;;;4.53;;